Time;durP1;ratioP1;P1;durP2;ratioP2;P2;SDS_P1;SDS_P2;PMS_P1;PMS_P2;Temp;Humidity;BMP_temperature;BMP_pressure;BME280_temperature;BME280_humidity;BME280_pressure;Samples;Min_cycle;Max_cycle;Signal;HPM_P1;HPM_P2
2021/05/17 00:01:47;;;;;;;6.38;4.45;;;;;;;13.61;64.64;99360.53;5049727;28;20420;-21
2021/05/17 00:04:14;;;;;;;7.57;4.93;;;;;;;13.63;63.70;99367.25;5048353;28;20501;-22
2021/05/17 00:06:40;;;;;;;6.15;4.65;;;;;;;13.46;64.85;99363.88;5048391;28;20068;-22
2021/05/17 00:09:06;;;;;;;6.53;4.43;;;;;;;12.62;67.62;99344.53;5049804;28;20445;-23
2021/05/17 00:11:31;;;;;;;7.00;4.75;;;;;;;13.29;66.42;99368.53;5049570;28;20032;-22
2021/05/17 00:13:57;;;;;;;12.13;6.90;;;;;;;13.62;65.04;99362.94;5049626;28;20822;-22
2021/05/17 00:16:22;;;;;;;7.28;5.00;;;;;;;12.83;66.84;99342.91;5049130;28;20029;-21
2021/05/17 00:18:48;;;;;;;8.20;4.75;;;;;;;12.76;67.67;99366.38;5049706;28;20029;-21
2021/05/17 00:21:13;;;;;;;6.80;4.70;;;;;;;12.60;68.35;99365.38;5049721;28;20040;-22
2021/05/17 00:23:39;;;;;;;8.30;5.05;;;;;;;12.45;68.14;99366.00;5049547;28;20082;-22
2021/05/17 00:26:04;;;;;;;7.53;4.72;;;;;;;12.59;67.64;99371.00;5049359;28;20025;-22
2021/05/17 00:28:30;;;;;;;8.73;5.32;;;;;;;13.04;65.35;99364.53;5049115;28;20124;-21
2021/05/17 00:30:56;;;;;;;8.82;5.13;;;;;;;13.05;65.17;99369.63;5049057;28;20095;-21
2021/05/17 00:33:21;;;;;;;8.02;4.88;;;;;;;12.76;66.27;99355.66;5049345;28;20029;-21
2021/05/17 00:35:50;;;;;;;7.65;4.80;;;;;;;13.01;66.68;99368.50;5048129;28;20037;-22
2021/05/17 00:38:19;;;;;;;7.95;5.05;;;;;;;12.77;68.06;99368.00;5049237;28;20031;-21
2021/05/17 00:40:45;;;;;;;8.00;4.32;;;;;;;12.91;65.64;99368.41;5049044;28;20123;-21
2021/05/17 00:43:10;;;;;;;6.50;4.80;;;;;;;13.00;65.40;99366.09;5048970;28;20099;-20
2021/05/17 00:45:36;;;;;;;10.05;5.40;;;;;;;12.22;68.19;99347.53;5047791;28;20872;-22
2021/05/17 00:48:01;;;;;;;8.60;6.50;;;;;;;12.54;67.68;99371.72;5049223;28;20475;-22
2021/05/17 00:50:27;;;;;;;9.15;6.43;;;;;;;12.46;67.37;99353.44;5048406;28;20045;-21
2021/05/17 00:52:53;;;;;;;8.88;6.57;;;;;;;12.33;67.67;99351.13;5049014;28;20056;-22
2021/05/17 00:55:19;;;;;;;8.57;6.07;;;;;;;12.53;66.94;99355.94;5030946;28;20033;-22
2021/05/17 00:57:44;;;;;;;7.25;5.15;;;;;;;12.96;65.54;99370.34;5048632;28;20094;-22
2021/05/17 01:00:12;;;;;;;8.20;5.60;;;;;;;12.79;65.60;99349.81;5048831;28;20029;-21
2021/05/17 01:02:38;;;;;;;7.65;4.93;;;;;;;12.88;65.23;99368.13;5047914;28;20512;-22
2021/05/17 01:05:04;;;;;;;7.22;4.60;;;;;;;12.03;67.20;99347.81;5049022;28;20025;-21
2021/05/17 01:07:30;;;;;;;11.98;8.00;;;;;;;11.62;69.09;99368.50;5048735;28;20500;-22
2021/05/17 01:09:56;;;;;;;9.13;5.60;;;;;;;11.64;69.71;99369.09;5047279;28;20036;-22
2021/05/17 01:12:22;;;;;;;8.98;6.97;;;;;;;11.97;68.66;99362.16;5048166;28;20024;-21
2021/05/17 01:14:47;;;;;;;11.32;7.88;;;;;;;12.11;68.60;99343.88;5047206;28;20036;-21
2021/05/17 01:17:13;;;;;;;8.57;6.00;;;;;;;12.58;67.61;99364.81;5048429;28;20444;-22
2021/05/17 01:20:06;;;;;;;8.63;5.45;;;;;;;12.67;67.48;99367.88;5047185;28;20504;-22
2021/05/17 01:22:39;;;;;;;9.30;6.13;;;;;;;12.41;68.91;99343.50;5047307;28;20125;-22
2021/05/17 01:25:05;;;;;;;8.93;5.93;;;;;;;12.62;67.40;99338.38;5048230;28;20035;-22
2021/05/17 01:27:31;;;;;;;9.77;6.15;;;;;;;13.08;66.53;99352.25;5048077;28;20374;-22
2021/05/17 01:29:56;;;;;;;7.90;6.30;;;;;;;13.27;65.99;99374.94;5030495;28;20037;-22
2021/05/17 01:32:22;;;;;;;8.88;5.45;;;;;;;12.50;67.45;99367.91;5046709;28;20382;-22
2021/05/17 01:34:47;;;;;;;9.60;5.72;;;;;;;11.97;68.96;99370.19;5047153;28;20041;-22
2021/05/17 01:37:13;;;;;;;8.13;5.05;;;;;;;11.60;70.72;99378.63;5047861;28;20021;-21
2021/05/17 01:39:38;;;;;;;9.07;5.43;;;;;;;11.37;70.41;99366.25;5030191;28;20029;-21
2021/05/17 01:42:04;;;;;;;6.40;5.00;;;;;;;11.61;69.54;99360.78;5030472;28;20037;-21
2021/05/17 01:44:29;;;;;;;8.65;5.47;;;;;;;12.19;68.65;99372.06;5047722;28;20029;-22
2021/05/17 01:46:58;;;;;;;6.95;5.38;;;;;;;12.57;66.44;99381.13;5047630;28;20025;-22
2021/05/17 01:49:24;;;;;;;5.85;4.63;;;;;;;12.24;67.84;99378.31;5047613;28;20090;-23
2021/05/17 01:51:50;;;;;;;7.50;5.28;;;;;;;12.30;67.13;99373.00;5046111;28;20045;-22
2021/05/17 01:54:16;;;;;;;6.32;4.63;;;;;;;12.17;66.92;99364.28;5047398;28;20032;-22
2021/05/17 01:56:42;;;;;;;7.25;5.30;;;;;;;12.43;66.10;99372.66;5047817;28;20056;-21
2021/05/17 01:59:08;;;;;;;7.43;5.15;;;;;;;12.75;64.97;99380.81;5047716;28;20482;-22
2021/05/17 02:01:34;;;;;;;7.10;5.30;;;;;;;12.61;65.52;99368.88;5047717;28;20039;-21
2021/05/17 02:03:59;;;;;;;7.72;5.60;;;;;;;11.98;67.22;99371.78;5047853;28;20028;-22
2021/05/17 02:06:25;;;;;;;7.20;5.25;;;;;;;12.64;64.90;99369.16;5046040;28;20033;-22
2021/05/17 02:08:51;;;;;;;9.05;5.68;;;;;;;12.61;64.55;99352.81;5047294;28;20032;-22
2021/05/17 02:11:22;;;;;;;7.88;5.38;;;;;;;12.38;64.88;99365.38;5046122;28;20028;-22
2021/05/17 02:13:48;;;;;;;8.35;5.60;;;;;;;12.29;65.93;99377.56;5047686;28;20067;-22
2021/05/17 02:16:14;;;;;;;8.25;5.85;;;;;;;11.97;66.94;99383.53;5047317;28;20045;-22
2021/05/17 02:18:41;;;;;;;7.50;6.05;;;;;;;11.99;66.96;99372.56;5046134;28;20037;-22
2021/05/17 02:21:08;;;;;;;8.95;5.70;;;;;;;11.68;67.06;99381.97;5047107;28;20047;-22
2021/05/17 02:23:34;;;;;;;9.52;5.88;;;;;;;11.56;67.65;99374.81;5047292;28;20090;-22
2021/05/17 02:26:00;;;;;;;9.95;6.13;;;;;;;11.43;67.68;99378.63;5046001;28;20115;-22
2021/05/17 02:28:25;;;;;;;7.40;5.63;;;;;;;11.59;67.77;99369.00;5047034;28;20021;-22
2021/05/17 02:30:51;;;;;;;9.40;6.28;;;;;;;11.29;68.30;99357.81;5046282;28;20033;-22
2021/05/17 02:33:16;;;;;;;9.20;6.05;;;;;;;11.17;69.20;99360.56;5047242;28;20059;-21
2021/05/17 02:35:42;;;;;;;11.60;6.32;;;;;;;11.48;69.00;99356.53;5045764;28;20035;-21
2021/05/17 02:38:08;;;;;;;9.50;5.82;;;;;;;11.49;68.96;99347.50;5047128;28;20017;-21
2021/05/17 02:40:33;;;;;;;9.23;6.53;;;;;;;12.00;67.33;99360.84;5046993;28;20037;-21
2021/05/17 02:43:00;;;;;;;9.82;5.72;;;;;;;11.90;66.87;99348.16;5047377;28;20041;-22
2021/05/17 02:45:26;;;;;;;7.68;5.30;;;;;;;12.06;65.85;99352.66;5047481;28;20036;-22
2021/05/17 02:47:52;;;;;;;8.40;6.28;;;;;;;11.72;68.20;99367.88;5045908;28;20048;-21
2021/05/17 02:50:17;;;;;;;7.72;5.18;;;;;;;11.55;68.99;99380.44;5046546;28;20377;-21
2021/05/17 02:52:45;;;;;;;8.20;5.57;;;;;;;11.05;69.74;99379.28;5046957;28;20060;-22
2021/05/17 02:55:13;;;;;;;9.52;5.82;;;;;;;10.98;70.28;99362.63;5047034;28;20504;-22
2021/05/17 02:57:42;;;;;;;6.85;5.25;;;;;;;10.93;70.05;99373.19;5047060;28;20551;-22
2021/05/17 03:00:08;;;;;;;8.63;4.70;;;;;;;10.84;70.02;99378.09;5047076;28;20393;-22
2021/05/17 03:02:45;;;;;;;7.22;4.68;;;;;;;11.10;69.36;99376.72;5046757;28;20021;-21
2021/05/17 03:05:12;;;;;;;7.35;4.97;;;;;;;11.55;67.53;99362.53;5046676;28;20122;-22
2021/05/17 03:07:38;;;;;;;6.80;4.57;;;;;;;11.14;68.55;99367.19;5046759;28;20033;-22
2021/05/17 03:10:04;;;;;;;7.57;4.68;;;;;;;10.93;69.51;99359.84;5028940;28;20036;-22
2021/05/17 03:12:29;;;;;;;6.80;4.50;;;;;;;10.62;69.44;99364.59;5046462;28;20025;-22
2021/05/17 03:14:55;;;;;;;19.00;5.25;;;;;;;10.20;70.67;99364.75;5045508;28;20047;-22
2021/05/17 03:17:20;;;;;;;7.03;4.45;;;;;;;10.02;71.94;99366.50;5045407;28;20040;-21
2021/05/17 03:19:45;;;;;;;7.50;4.70;;;;;;;10.41;70.47;99358.03;5045327;28;20029;-21
2021/05/17 03:22:11;;;;;;;6.47;4.22;;;;;;;10.86;68.99;99354.66;5047037;28;20390;-22
2021/05/17 03:24:38;;;;;;;6.55;4.60;;;;;;;11.34;67.67;99365.91;5046852;28;20071;-21
2021/05/17 03:27:20;;;;;;;10.13;4.90;;;;;;;11.24;68.46;99364.69;5050363;28;20029;-23
2021/05/17 03:29:45;;;;;;;9.43;5.80;;;;;;;11.41;67.10;99345.22;5050814;28;20536;-22
2021/05/17 03:32:11;;;;;;;7.22;5.30;;;;;;;11.61;67.25;99356.22;5049094;28;20033;-22
2021/05/17 03:34:36;;;;;;;7.75;5.07;;;;;;;11.97;65.13;99362.16;5050134;28;20040;-22
2021/05/17 03:37:02;;;;;;;7.70;5.28;;;;;;;11.97;65.89;99378.19;5050175;28;20083;-22
2021/05/17 03:39:27;;;;;;;7.90;5.10;;;;;;;12.10;65.95;99368.22;5048973;28;20040;-22
2021/05/17 03:41:53;;;;;;;6.85;5.13;;;;;;;12.27;65.59;99385.00;5050276;28;20502;-21
2021/05/17 03:44:18;;;;;;;7.68;5.00;;;;;;;12.18;66.12;99397.19;5049951;28;20404;-22
2021/05/17 03:46:43;;;;;;;8.40;5.35;;;;;;;12.16;66.57;99399.31;5049943;28;20025;-22
2021/05/17 03:49:09;;;;;;;11.93;5.50;;;;;;;12.15;66.67;99403.81;5050161;28;20065;-21
2021/05/17 03:51:34;;;;;;;12.10;5.47;;;;;;;12.00;67.71;99395.59;5050163;28;20855;-21
2021/05/17 03:54:00;;;;;;;10.48;5.38;;;;;;;12.10;67.41;99405.63;5050149;28;20029;-21
2021/05/17 03:56:25;;;;;;;10.50;5.70;;;;;;;12.39;66.47;99395.59;5050174;28;20037;-22
2021/05/17 03:58:51;;;;;;;8.77;5.53;;;;;;;12.60;65.93;99394.00;5049801;28;20382;-21
2021/05/17 04:01:16;;;;;;;10.75;6.75;;;;;;;12.30;67.53;99395.22;5049557;28;20033;-21
2021/05/17 04:03:42;;;;;;;9.27;6.63;;;;;;;12.41;67.52;99402.31;5050059;28;20028;-22
2021/05/17 04:06:17;;;;;;;8.15;5.85;;;;;;;12.53;67.38;99409.44;5049791;28;20044;-21
2021/05/17 04:13:56;;;;;;;7.45;5.05;;;;;;;13.18;65.80;99416.63;5049854;28;20138;-22
2021/05/17 04:16:21;;;;;;;7.22;4.60;;;;;;;13.49;64.76;99408.91;5049422;28;20051;-22
2021/05/17 04:18:47;;;;;;;8.75;4.57;;;;;;;13.49;65.02;99413.47;5049536;28;20033;-21
2021/05/17 04:21:13;;;;;;;10.10;4.90;;;;;;;13.57;64.59;99413.81;5049696;28;20037;-21
2021/05/17 04:23:38;;;;;;;6.70;5.20;;;;;;;13.26;65.99;99428.75;5048394;28;20036;-22
2021/05/17 04:26:04;;;;;;;19.48;6.85;;;;;;;12.38;69.60;99418.88;5049018;28;20025;-22
2021/05/17 04:28:30;;;;;;;8.98;6.18;;;;;;;12.20;71.28;99438.66;5049061;28;20024;-22
2021/05/17 04:30:55;;;;;;;9.15;5.75;;;;;;;11.96;71.71;99438.00;5049706;28;20057;-22
2021/05/17 04:33:21;;;;;;;9.93;5.35;;;;;;;12.22;70.60;99447.25;5048139;28;20457;-22
2021/05/17 04:35:47;;;;;;;9.82;6.07;;;;;;;12.49;69.36;99461.78;5049268;28;20037;-22
2021/05/17 04:38:12;;;;;;;7.38;5.38;;;;;;;12.89;68.68;99458.03;5048936;28;20481;-22
2021/05/17 04:40:38;;;;;;;7.45;5.60;;;;;;;12.93;67.85;99438.53;5049104;28;20040;-21
2021/05/17 04:43:03;;;;;;;8.57;5.70;;;;;;;13.49;66.97;99470.53;5048938;28;20082;-21
2021/05/17 04:45:29;;;;;;;7.60;5.63;;;;;;;13.72;66.50;99469.41;5049303;28;20143;-23
2021/05/17 04:47:54;;;;;;;8.18;5.20;;;;;;;14.06;64.95;99459.25;5049093;28;20036;-21
2021/05/17 04:50:20;;;;;;;8.32;4.82;;;;;;;13.99;65.19;99445.22;5048452;28;20040;-22
2021/05/17 04:52:46;;;;;;;7.25;5.05;;;;;;;13.96;65.18;99447.63;5048777;28;20025;-21
2021/05/17 04:55:12;;;;;;;8.50;5.13;;;;;;;13.90;65.20;99449.47;5048772;28;20115;-22
2021/05/17 04:57:37;;;;;;;6.63;4.63;;;;;;;14.23;64.54;99466.31;5048806;28;20035;-21
2021/05/17 05:00:04;;;;;;;6.53;5.22;;;;;;;14.51;63.87;99453.63;5049117;28;20029;-22
2021/05/17 05:02:30;;;;;;;9.15;5.55;;;;;;;14.62;63.70;99445.41;5047809;28;20128;-22
2021/05/17 05:04:55;;;;;;;8.48;5.70;;;;;;;14.71;65.07;99448.41;5048645;28;20032;-21
2021/05/17 05:07:21;;;;;;;7.47;5.25;;;;;;;14.92;64.10;99443.13;5048567;28;20504;-22
2021/05/17 05:09:46;;;;;;;7.43;5.38;;;;;;;14.78;64.38;99443.59;5048521;28;20037;-21
2021/05/17 05:12:12;;;;;;;7.93;5.43;;;;;;;14.46;65.11;99428.41;5048159;28;20029;-23
2021/05/17 05:14:37;;;;;;;8.20;5.10;;;;;;;14.78;63.89;99429.38;5048701;28;20040;-23
2021/05/17 05:17:03;;;;;;;8.02;5.25;;;;;;;14.78;65.48;99432.88;5048472;28;20044;-24
2021/05/17 05:19:28;;;;;;;9.23;6.05;;;;;;;15.26;64.24;99438.94;5048523;28;20471;-24
2021/05/17 05:21:53;;;;;;;9.13;5.50;;;;;;;15.76;62.75;99438.50;5048555;28;20071;-23
2021/05/17 05:24:19;;;;;;;10.32;5.68;;;;;;;16.12;61.50;99443.84;5048236;28;20040;-24
2021/05/17 05:32:20;;;;;;;9.95;4.90;;;;;;;16.92;59.58;99435.06;5048310;28;20032;-24
2021/05/17 05:34:46;;;;;;;17.83;10.05;;;;;;;17.18;58.25;99425.78;5048067;28;20129;-23
2021/05/17 05:37:12;;;;;;;6.43;4.43;;;;;;;17.05;58.72;99429.09;5047936;28;20523;-24
2021/05/17 05:39:37;;;;;;;5.35;3.90;;;;;;;17.06;58.25;99428.00;5048008;28;20029;-23
2021/05/17 05:42:03;;;;;;;10.45;4.32;;;;;;;17.23;56.52;99431.13;5048290;28;20037;-22
2021/05/17 05:44:29;;;;;;;8.63;4.28;;;;;;;17.43;56.64;99432.13;5047891;28;20812;-22
2021/05/17 05:46:54;;;;;;;8.80;4.50;;;;;;;17.35;56.69;99435.41;5047509;28;20512;-22
2021/05/17 05:49:22;;;;;;;7.38;3.90;;;;;;;17.47;55.83;99425.06;5047143;28;20087;-22
2021/05/17 05:51:47;;;;;;;6.25;4.43;;;;;;;17.72;54.91;99425.97;5045984;28;20056;-22
2021/05/17 05:54:14;;;;;;;5.82;4.03;;;;;;;17.56;54.95;99419.88;5047524;28;20044;-22
2021/05/17 05:56:39;;;;;;;7.75;5.07;;;;;;;17.23;55.13;99425.75;5047733;28;20086;-22
2021/05/17 05:59:05;;;;;;;7.10;4.60;;;;;;;17.03;57.22;99426.66;5047689;28;20508;-21
2021/05/17 06:01:30;;;;;;;6.20;4.47;;;;;;;16.69;57.62;99426.50;5047115;28;20033;-22
2021/05/17 06:03:56;;;;;;;8.05;3.88;;;;;;;17.45;54.90;99429.94;5046833;28;20029;-21
2021/05/17 06:06:21;;;;;;;6.82;3.88;;;;;;;17.60;55.12;99429.81;5045636;28;20036;-20
2021/05/17 06:08:47;;;;;;;6.65;3.85;;;;;;;17.42;55.23;99407.03;5046729;28;20331;-21
2021/05/17 06:11:12;;;;;;;7.22;4.13;;;;;;;17.31;55.73;99413.59;5047359;28;20025;-22
2021/05/17 06:13:38;;;;;;;10.35;5.15;;;;;;;17.10;57.32;99410.22;5047590;28;20069;-22
2021/05/17 06:16:07;;;;;;;7.45;4.78;;;;;;;17.90;55.33;99414.53;5046331;28;20029;-21
2021/05/17 06:18:33;;;;;;;8.32;4.85;;;;;;;18.50;52.72;99435.00;5047019;28;20020;-21
2021/05/17 06:21:00;;;;;;;5.80;4.32;;;;;;;18.35;54.00;99407.06;5047013;28;20035;-22
2021/05/17 06:23:26;;;;;;;6.85;4.40;;;;;;;17.96;56.04;99432.28;5047431;28;20025;-22
2021/05/17 06:25:53;;;;;;;6.78;4.32;;;;;;;17.93;55.57;99430.13;5047143;28;20033;-22
2021/05/17 06:28:20;;;;;;;7.32;3.90;;;;;;;18.23;54.89;99422.84;5046982;28;20033;-22
2021/05/17 06:30:55;;;;;;;9.52;4.45;;;;;;;18.07;55.39;99425.69;5047142;28;20037;-21
2021/05/17 06:33:23;;;;;;;5.43;4.10;;;;;;;18.13;54.34;99421.06;5047151;28;20483;-21
2021/05/17 06:35:54;;;;;;;5.28;3.83;;;;;;;18.52;54.91;99432.81;5047215;28;20028;-21
2021/05/17 06:38:20;;;;;;;5.78;4.05;;;;;;;18.31;55.32;99410.59;5046981;28;20487;-21
2021/05/17 06:40:46;;;;;;;8.52;4.30;;;;;;;18.73;53.97;99407.16;5047059;28;20029;-21
2021/05/17 06:43:11;;;;;;;7.25;4.03;;;;;;;18.86;52.99;99417.31;5047150;28;20033;-22
2021/05/17 06:45:37;;;;;;;5.55;3.80;;;;;;;18.81;53.37;99403.06;5047189;28;20087;-23
2021/05/17 06:48:03;;;;;;;7.00;4.25;;;;;;;18.65;54.85;99413.22;5047022;28;20033;-21
2021/05/17 06:50:28;;;;;;;5.38;3.63;;;;;;;18.73;52.02;99390.16;5046607;28;20045;-21
2021/05/17 06:52:54;;;;;;;7.93;4.10;;;;;;;19.25;51.02;99391.13;5047252;28;20037;-21
2021/05/17 06:55:22;;;;;;;5.60;3.65;;;;;;;19.47;51.13;99393.19;5047319;28;20036;-21
2021/05/17 07:00:39;;;;;;;6.63;3.80;;;;;;;19.22;53.47;99383.59;5047379;28;20040;-21
2021/05/17 07:03:06;;;;;;;7.65;3.90;;;;;;;19.12;51.48;99371.00;5051209;28;20401;-22
2021/05/17 07:05:33;;;;;;;6.50;4.20;;;;;;;19.21;52.91;99380.09;5051069;28;20138;-21
2021/05/17 07:13:10;;;;;;;9.40;3.80;;;;;;;19.62;51.87;99379.44;5051020;28;20039;-21
2021/05/17 07:15:36;;;;;;;4.93;3.63;;;;;;;19.77;50.56;99350.56;5050687;28;20029;-21
2021/05/17 07:18:02;;;;;;;7.05;3.85;;;;;;;20.21;50.06;99344.63;5050728;28;20040;-22
2021/05/17 07:25:59;;;;;;;6.65;3.95;;;;;;;21.18;49.92;99359.94;5050901;28;20093;-21
2021/05/17 07:28:25;;;;;;;6.40;4.40;;;;;;;21.54;47.96;99364.56;5050394;28;20063;-22
2021/05/17 07:30:50;;;;;;;6.57;4.28;;;;;;;21.52;47.70;99362.16;5050426;28;20029;-22
2021/05/17 07:33:16;;;;;;;6.15;4.88;;;;;;;20.45;48.87;99357.97;5050352;28;20067;-21
2021/05/17 07:35:42;;;;;;;6.32;4.05;;;;;;;20.61;49.76;99338.69;5050172;28;20036;-21
2021/05/17 07:38:07;;;;;;;6.07;3.95;;;;;;;20.54;51.99;99360.75;5049061;28;20028;-21
2021/05/17 07:40:33;;;;;;;5.35;3.88;;;;;;;20.48;50.09;99346.50;5050343;28;20051;-21
2021/05/17 07:42:58;;;;;;;6.78;3.70;;;;;;;20.91;47.48;99352.69;5050271;28;20041;-21
2021/05/17 07:45:24;;;;;;;5.82;4.10;;;;;;;20.76;49.03;99351.09;5050183;28;20033;-21
2021/05/17 07:47:49;;;;;;;7.18;4.25;;;;;;;21.08;47.84;99350.13;5050692;28;20048;-21
2021/05/17 07:50:15;;;;;;;14.00;4.40;;;;;;;21.82;47.82;99351.63;5049645;28;20089;-21
2021/05/17 07:52:41;;;;;;;10.70;3.92;;;;;;;22.58;44.39;99348.78;5049989;28;20055;-21
2021/05/17 07:55:07;;;;;;;5.90;3.78;;;;;;;23.02;44.10;99348.84;5050136;28;20036;-21
2021/05/17 07:57:32;;;;;;;7.93;3.67;;;;;;;23.72;42.23;99344.16;5050029;28;20028;-21
2021/05/17 07:59:58;;;;;;;9.10;4.00;;;;;;;23.46;43.50;99339.53;5049980;28;20041;-21
2021/05/17 08:02:23;;;;;;;6.32;4.00;;;;;;;23.59;42.33;99345.13;5049920;28;20032;-21
2021/05/17 08:04:50;;;;;;;8.43;4.28;;;;;;;23.93;41.41;99347.00;5050169;28;20037;-21
2021/05/17 08:07:17;;;;;;;4.93;3.47;;;;;;;23.20;42.14;99330.63;5049604;28;20087;-21
2021/05/17 08:09:43;;;;;;;8.35;3.60;;;;;;;23.21;42.65;99321.31;5049842;28;20511;-21
2021/05/17 08:12:09;;;;;;;5.90;3.60;;;;;;;23.45;44.06;99331.69;5049265;28;20111;-22
2021/05/17 08:14:35;;;;;;;4.50;3.10;;;;;;;23.39;43.92;99333.00;5049649;28;20116;-21
2021/05/17 08:17:02;;;;;;;6.68;3.58;;;;;;;23.64;42.35;99340.31;5049589;28;20021;-21
2021/05/17 08:19:27;;;;;;;5.57;3.55;;;;;;;23.38;43.52;99336.84;5049418;28;20029;-22
2021/05/17 08:21:54;;;;;;;5.22;3.25;;;;;;;23.17;43.40;99326.63;5049368;28;20082;-21
2021/05/17 08:24:19;;;;;;;4.65;3.28;;;;;;;23.42;42.17;99335.09;5049328;28;20114;-21
2021/05/17 08:26:45;;;;;;;6.75;3.40;;;;;;;23.34;41.97;99330.44;5049496;28;20444;-21
2021/05/17 08:29:10;;;;;;;7.28;3.30;;;;;;;23.41;43.02;99322.59;5049297;28;20032;-21
2021/05/17 08:31:36;;;;;;;8.50;3.70;;;;;;;23.62;41.66;99319.97;5049780;28;20040;-21
2021/05/17 08:34:01;;;;;;;12.75;5.15;;;;;;;23.65;41.00;99309.25;5049365;28;20846;-21
2021/05/17 08:36:27;;;;;;;8.02;3.28;;;;;;;23.79;40.02;99321.91;5048868;28;20504;-21
2021/05/17 08:38:52;;;;;;;5.93;3.03;;;;;;;23.96;40.43;99319.09;5049351;28;20032;-21
2021/05/17 08:41:18;;;;;;;5.13;3.28;;;;;;;23.74;41.51;99305.69;5049301;28;20098;-21
2021/05/17 08:43:43;;;;;;;10.00;3.63;;;;;;;23.70;43.73;99307.47;5049564;28;20390;-21
2021/05/17 08:46:10;;;;;;;6.57;3.20;;;;;;;24.00;42.89;99306.44;5049233;28;20032;-21
2021/05/17 08:48:48;;;;;;;10.52;3.90;;;;;;;24.38;40.91;99302.88;5049092;28;20033;-21
2021/05/17 08:51:22;;;;;;;7.35;3.70;;;;;;;24.85;41.45;99294.56;5048834;28;20053;-21
2021/05/17 08:53:49;;;;;;;6.00;2.97;;;;;;;25.04;39.74;99296.81;5048911;28;20037;-21
2021/05/17 08:56:15;;;;;;;9.43;3.58;;;;;;;24.16;41.31;99278.66;5048627;28;20542;-21
2021/05/17 08:58:41;;;;;;;13.98;4.30;;;;;;;24.07;41.55;99297.75;5048720;28;20394;-21
2021/05/17 09:01:06;;;;;;;8.00;3.35;;;;;;;24.12;40.82;99294.84;5047370;28;20032;-21
2021/05/17 09:03:32;;;;;;;7.85;4.30;;;;;;;24.53;40.18;99285.19;5048581;28;20091;-21
2021/05/17 09:05:57;;;;;;;6.28;3.17;;;;;;;24.58;39.58;99290.44;5047372;28;20025;-21
2021/05/17 09:08:26;;;;;;;5.50;3.45;;;;;;;24.09;40.05;99283.78;5030351;28;20508;-21
2021/05/17 09:10:52;;;;;;;6.72;3.30;;;;;;;23.87;40.01;99291.13;5048799;28;20040;-21
2021/05/17 09:13:18;;;;;;;5.63;3.38;;;;;;;23.99;40.43;99285.00;5048460;28;20021;-20
2021/05/17 09:15:43;;;;;;;7.88;2.90;;;;;;;24.03;40.07;99303.06;5048781;28;20028;-20
2021/05/17 09:18:16;;;;;;;5.13;3.08;;;;;;;24.11;39.95;99285.09;5048551;28;20456;-21
2021/05/17 09:20:46;;;;;;;5.72;3.40;;;;;;;24.19;41.13;99288.88;5048689;28;20055;-20
2021/05/17 09:23:23;;;;;;;5.30;3.10;;;;;;;24.26;42.48;99289.97;5047518;28;20033;-21
2021/05/17 09:26:02;;;;;;;4.55;2.78;;;;;;;24.10;41.44;99288.13;5048258;28;20029;-21
2021/05/17 09:28:36;;;;;;;4.95;2.90;;;;;;;23.67;42.16;99274.31;5047806;28;20417;-20
2021/05/17 09:31:09;;;;;;;4.63;3.17;;;;;;;24.12;41.49;99283.94;5048236;28;20072;-21
2021/05/17 09:33:44;;;;;;;6.47;3.50;;;;;;;24.57;41.62;99286.09;5048153;28;20489;-20
2021/05/17 09:36:26;;;;;;;7.13;3.42;;;;;;;24.86;40.88;99284.44;5048004;28;20409;-20
2021/05/17 09:39:04;;;;;;;6.30;3.03;;;;;;;25.11;39.33;99260.81;5048196;28;20029;-20
2021/05/17 09:41:42;;;;;;;4.40;2.90;;;;;;;25.29;38.35;99283.28;5048251;28;20052;-20
2021/05/17 09:44:12;;;;;;;5.63;3.63;;;;;;;25.15;39.29;99264.47;5047990;28;20024;-20
2021/05/17 09:47:00;;;;;;;5.25;3.13;;;;;;;25.54;38.37;99280.63;5048007;28;20035;-21
2021/05/17 09:49:38;;;;;;;4.47;2.92;;;;;;;25.81;37.45;99276.47;5047554;28;20044;-21
2021/05/17 09:52:19;;;;;;;7.93;2.90;;;;;;;25.69;37.58;99260.06;5047932;28;20102;-21
2021/05/17 09:55:17;;;;;;;5.45;2.88;;;;;;;25.19;39.05;99270.84;5048109;28;20124;-21
2021/05/17 09:57:44;;;;;;;4.18;3.10;;;;;;;25.51;38.93;99279.38;5046206;28;20037;-20
2021/05/17 10:00:31;;;;;;;5.45;3.30;;;;;;;24.62;38.38;99271.47;5047735;28;20512;-20
2021/05/17 10:02:57;;;;;;;5.60;2.70;;;;;;;24.76;37.81;99258.38;5047829;28;20029;-20
2021/05/17 10:05:29;;;;;;;5.90;3.10;;;;;;;25.25;38.01;99269.53;5047736;28;20041;-20
2021/05/17 10:07:58;;;;;;;4.97;3.20;;;;;;;24.93;39.01;99257.44;5047352;28;20029;-20
2021/05/17 10:10:25;;;;;;;4.95;3.17;;;;;;;24.95;38.61;99255.19;5047316;28;20025;-20
2021/05/17 10:12:51;;;;;;;6.80;2.55;;;;;;;25.24;38.39;99234.41;5047553;28;20036;-20
2021/05/17 10:15:17;;;;;;;4.70;2.55;;;;;;;25.61;37.17;99232.53;5047527;28;20029;-21
2021/05/17 10:17:43;;;;;;;3.33;2.65;;;;;;;26.02;36.96;99230.72;5047339;28;20104;-20
2021/05/17 10:20:10;;;;;;;4.18;2.65;;;;;;;26.22;35.59;99239.16;5047282;28;20155;-20
2021/05/17 10:22:36;;;;;;;5.50;2.78;;;;;;;25.65;36.81;99221.72;5047255;28;20025;-20
2021/05/17 10:25:04;;;;;;;4.57;3.05;;;;;;;25.90;36.11;99205.38;5047351;28;20037;-20
2021/05/17 10:27:30;;;;;;;5.05;2.28;;;;;;;25.97;35.33;99232.91;5047127;28;20028;-20
2021/05/17 10:30:01;;;;;;;5.00;2.17;;;;;;;25.54;36.44;99220.56;5047118;28;20393;-20
2021/05/17 10:32:43;;;;;;;2.47;1.65;;;;;;;25.49;33.46;99213.41;5045808;28;20107;-21
2021/05/17 10:35:11;;;;;;;3.60;2.50;;;;;;;26.01;35.07;99218.22;5046952;28;20048;-20
2021/05/17 10:37:37;;;;;;;4.22;2.20;;;;;;;26.34;35.53;99228.19;5047105;28;20025;-20
2021/05/17 10:40:04;;;;;;;2.42;1.90;;;;;;;26.37;35.06;99213.81;5046038;28;20090;-20
2021/05/17 10:42:43;;;;;;;3.17;2.10;;;;;;;26.53;35.09;99222.09;5047148;28;20028;-20
2021/05/17 10:48:12;;;;;;;5.15;1.92;;;;;;;25.78;34.78;99217.84;5047319;28;20075;-20
2021/05/17 10:50:38;;;;;;;3.33;1.60;;;;;;;25.91;32.95;99206.94;5046857;28;20044;-21
2021/05/17 10:53:04;;;;;;;3.13;1.60;;;;;;;26.36;33.67;99195.84;5047018;28;20104;-20
2021/05/17 10:55:29;;;;;;;3.60;1.90;;;;;;;26.42;31.01;99175.34;5046900;28;20504;-20
2021/05/17 11:00:28;;;;;;;4.10;1.95;;;;;;;26.70;32.62;99190.19;5047021;28;20128;-20
2021/05/17 11:03:13;;;;;;;3.30;2.10;;;;;;;26.62;33.62;99186.44;5046995;28;20079;-20
2021/05/17 11:05:40;;;;;;;4.15;2.10;;;;;;;26.68;34.72;99179.56;5046884;28;20037;-20
2021/05/17 11:08:12;;;;;;;5.82;2.15;;;;;;;26.36;32.93;99173.19;5046635;28;20553;-20
2021/05/17 11:10:39;;;;;;;7.13;2.60;;;;;;;26.41;35.16;99168.25;5046763;28;20104;-20
2021/05/17 11:13:14;;;;;;;4.50;1.77;;;;;;;26.58;33.26;99185.53;5046733;28;20108;-20
2021/05/17 11:15:44;;;;;;;6.75;1.90;;;;;;;25.89;32.76;99174.50;5046763;28;20119;-20
2021/05/17 11:18:11;;;;;;;2.83;1.90;;;;;;;25.74;34.18;99186.91;5046792;28;20473;-21
2021/05/17 11:23:05;;;;;;;5.15;2.05;;;;;;;25.63;36.44;99192.03;5046842;28;20040;-20
2021/05/17 11:25:48;;;;;;;4.85;2.00;;;;;;;25.66;35.86;99185.06;5046902;28;20032;-20
2021/05/17 11:28:14;;;;;;;4.50;2.00;;;;;;;25.46;36.59;99181.34;5046384;28;20029;-21
2021/05/17 11:30:42;;;;;;;4.15;2.00;;;;;;;25.83;35.15;99192.25;5046514;28;20408;-20
2021/05/17 11:33:15;;;;;;;3.85;1.70;;;;;;;25.92;35.17;99187.50;5046637;28;20515;-20
2021/05/17 11:36:19;;;;;;;11.38;2.10;;;;;;;25.67;35.33;99192.16;5046674;28;20144;-20
2021/05/17 11:39:10;;;;;;;3.13;1.70;;;;;;;25.55;37.97;99182.00;5046387;28;20039;-20
2021/05/17 11:41:56;;;;;;;5.28;2.30;;;;;;;25.89;37.97;99196.34;5046449;28;20040;-21
2021/05/17 11:44:35;;;;;;;3.50;1.70;;;;;;;26.25;37.05;99205.66;5045806;28;20043;-21
2021/05/17 11:47:14;;;;;;;4.22;2.10;;;;;;;26.00;36.07;99205.69;5048085;28;20059;-21
2021/05/17 11:49:41;;;;;;;4.60;2.00;;;;;;;25.61;38.20;99199.75;5050375;28;20033;-21
2021/05/17 11:52:14;;;;;;;5.85;2.50;;;;;;;25.55;38.75;99200.34;5050226;28;20053;-20
2021/05/17 11:54:41;;;;;;;6.05;2.50;;;;;;;24.86;40.95;99187.06;5050175;28;20090;-20
2021/05/17 11:57:07;;;;;;;9.63;2.60;;;;;;;24.78;40.17;99174.31;5050066;28;20412;-20
2021/05/17 11:59:33;;;;;;;6.25;2.30;;;;;;;24.81;39.14;99192.75;5049911;28;20139;-20
2021/05/17 12:02:08;;;;;;;3.85;2.33;;;;;;;25.15;39.26;99182.63;5049985;28;20037;-20
2021/05/17 12:04:44;;;;;;;5.15;2.13;;;;;;;25.33;39.04;99198.81;5048380;28;20508;-20
2021/05/17 12:07:14;;;;;;;4.57;2.30;;;;;;;25.25;39.18;99198.59;5049965;28;20032;-21